createdAt,value
2019-02-21T00:00:23.899Z,46.27
2019-02-21T00:02:46.283Z,45.90
2019-02-21T00:05:16.033Z,42.57
2019-02-21T00:07:47.002Z,44.60
2019-02-21T00:10:16.662Z,48.60
2019-02-21T00:12:46.209Z,46.67
2019-02-21T00:15:16.123Z,47.30
2019-02-21T00:17:45.639Z,41.30
2019-02-21T00:20:15.258Z,45.53
2019-02-21T00:22:48.418Z,40.20
2019-02-21T00:25:17.921Z,42.43
2019-02-21T00:27:47.425Z,40.60
2019-02-21T00:30:16.666Z,41.13
2019-02-21T00:32:46.504Z,41.63
2019-02-21T00:35:16.461Z,43.70
2019-02-21T00:37:49.756Z,45.70
2019-02-21T00:40:19.239Z,43.50
2019-02-21T00:42:49.876Z,42.60
2019-02-21T00:45:22.445Z,40.80
2019-02-21T00:47:51.729Z,43.43
2019-02-21T00:50:21.257Z,43.37
2019-02-21T00:52:50.842Z,41.37
2019-02-21T00:55:20.096Z,44.63
2019-02-21T00:57:49.355Z,46.80
2019-02-21T01:00:18.640Z,44.03
2019-02-21T01:02:49.842Z,45.70
2019-02-21T01:05:19.293Z,45.90
2019-02-21T01:07:48.549Z,47.13
2019-02-21T01:10:18.480Z,51.67
2019-02-21T01:12:48.425Z,49.00
2019-02-21T01:15:20.694Z,45.90
2019-02-21T01:17:49.947Z,50.20
2019-02-21T01:20:19.201Z,43.63
2019-02-21T01:22:48.720Z,46.50
2019-02-21T01:25:17.890Z,43.83
2019-02-21T01:27:47.129Z,44.77
2019-02-21T01:30:16.437Z,44.33
2019-02-21T01:32:45.666Z,44.77
2019-02-21T01:35:14.845Z,47.23
2019-02-21T01:37:44.472Z,46.73
2019-02-21T01:40:13.648Z,50.53
2019-02-21T01:42:43.250Z,43.07
2019-02-21T01:45:12.445Z,43.67
2019-02-21T01:47:41.640Z,52.70
2019-02-21T01:50:10.861Z,43.70
2019-02-21T01:52:40.139Z,50.40
2019-02-21T01:55:10.162Z,46.97
2019-02-21T01:57:39.328Z,47.50
2019-02-21T02:00:09.506Z,43.93
2019-02-21T02:02:38.678Z,47.37
2019-02-21T02:05:10.069Z,42.23
2019-02-21T02:07:42.692Z,43.00
2019-02-21T02:10:12.233Z,44.90
2019-02-21T02:12:41.560Z,46.20
2019-02-21T02:15:11.322Z,42.93
2019-02-21T02:17:42.168Z,42.83
2019-02-21T02:20:14.566Z,45.50
2019-02-21T02:22:44.836Z,46.97
2019-02-21T02:25:14.092Z,42.63
2019-02-21T02:27:43.300Z,43.73
2019-02-21T02:30:12.779Z,49.87
2019-02-21T02:32:42.122Z,45.13
2019-02-21T02:35:11.788Z,42.60
2019-02-21T02:37:41.127Z,43.87
2019-02-21T02:40:10.855Z,43.97
2019-02-21T02:42:40.433Z,48.70
2019-02-21T02:45:11.737Z,46.20
2019-02-21T02:47:40.931Z,48.73
2019-02-21T02:50:10.551Z,44.43
2019-02-21T02:52:39.742Z,41.80
2019-02-21T02:55:09.236Z,47.13
2019-02-21T02:57:38.501Z,43.93
2019-02-21T03:00:09.949Z,46.67
2019-02-21T03:02:40.085Z,47.73
2019-02-21T03:05:09.450Z,42.80
2019-02-21T03:07:39.165Z,49.10
2019-02-21T03:10:10.019Z,48.53
2019-02-21T03:12:39.275Z,46.30
2019-02-21T03:15:11.343Z,46.57
2019-02-21T03:17:40.934Z,47.03
2019-02-21T03:20:10.309Z,46.30
2019-02-21T03:22:40.523Z,51.20
2019-02-21T03:25:10.620Z,45.27
2019-02-21T03:27:39.863Z,45.47
2019-02-21T03:30:12.198Z,47.57
2019-02-21T03:32:41.037Z,50.40
2019-02-21T03:35:10.839Z,50.23
2019-02-21T03:37:40.453Z,48.47
2019-02-21T03:40:10.141Z,49.73
2019-02-21T03:42:39.640Z,46.43
2019-02-21T03:45:09.877Z,64.93
2019-02-21T03:47:39.515Z,51.37
2019-02-21T03:50:09.382Z,53.83
2019-02-21T03:52:38.993Z,55.60
2019-02-21T03:55:08.899Z,52.73
2019-02-21T03:57:40.504Z,50.77
2019-02-21T04:00:09.058Z,54.20
2019-02-21T04:02:38.283Z,54.73
2019-02-21T04:05:07.576Z,52.00
2019-02-21T04:07:37.128Z,54.73
2019-02-21T04:10:06.466Z,55.70
2019-02-21T04:12:37.477Z,49.07
2019-02-21T04:15:07.383Z,57.87
2019-02-21T04:17:36.613Z,51.37
2019-02-21T04:20:06.253Z,51.67
2019-02-21T04:22:38.882Z,58.07
2019-02-21T04:25:08.210Z,56.50
2019-02-21T04:27:37.531Z,54.40
2019-02-21T04:30:07.009Z,61.23
2019-02-21T04:32:36.545Z,56.17
2019-02-21T04:35:05.872Z,57.80
2019-02-21T04:37:36.685Z,60.20
2019-02-21T04:40:06.144Z,62.10
2019-02-21T04:42:35.379Z,61.27
2019-02-21T04:45:05.977Z,52.90
2019-02-21T04:47:35.198Z,51.77
2019-02-21T04:50:04.818Z,56.63
2019-02-21T04:52:34.057Z,60.50
2019-02-21T04:55:05.555Z,54.40
2019-02-21T04:57:35.163Z,61.37
2019-02-21T05:00:05.198Z,62.80
2019-02-21T05:02:34.437Z,59.17
2019-02-21T05:05:04.069Z,61.60
2019-02-21T05:07:34.184Z,65.33
2019-02-21T05:10:03.526Z,63.73
2019-02-21T05:12:33.033Z,61.73
2019-02-21T05:15:02.535Z,61.93
2019-02-21T05:17:32.094Z,60.83
2019-02-21T05:20:01.717Z,66.70
2019-02-21T05:22:31.262Z,57.70
2019-02-21T05:25:04.221Z,61.50
2019-02-21T05:27:36.196Z,63.77
2019-02-21T05:30:06.999Z,58.47
2019-02-21T05:33:11.511Z,63.23
2019-02-21T05:35:54.360Z,64.10
2019-02-21T05:38:42.592Z,59.07
2019-02-21T05:41:24.697Z,63.30
2019-02-21T05:44:01.552Z,65.77
2019-02-21T05:46:50.996Z,64.27
2019-02-21T05:49:37.260Z,64.00
2019-02-21T05:52:25.479Z,72.00
2019-02-21T05:55:19.807Z,70.47
2019-02-21T05:57:58.104Z,68.30
2019-02-21T06:00:45.099Z,71.77
2019-02-21T06:03:36.378Z,72.87
2019-02-21T06:06:37.042Z,75.27
2019-02-21T06:09:25.240Z,69.80
2019-02-21T06:12:33.142Z,75.03
2019-02-21T06:15:18.325Z,64.50
2019-02-21T06:18:00.713Z,70.37
2019-02-21T06:20:51.289Z,66.97
2019-02-21T06:23:51.597Z,71.67
2019-02-21T06:26:32.393Z,78.80
2019-02-21T06:29:09.674Z,78.97
2019-02-21T06:31:38.204Z,81.40
2019-02-21T06:34:07.745Z,71.93
2019-02-21T06:36:36.923Z,76.57
2019-02-21T06:39:08.327Z,80.67
2019-02-21T06:41:38.317Z,85.67
2019-02-21T06:44:07.829Z,74.57
2019-02-21T06:46:37.111Z,76.43
2019-02-21T06:49:06.920Z,84.07
2019-02-21T06:51:36.113Z,81.77
2019-02-21T06:54:05.588Z,77.93
2019-02-21T06:56:40.539Z,78.27
2019-02-21T06:59:09.757Z,80.93
2019-02-21T07:01:39.008Z,81.80
2019-02-21T07:04:08.297Z,76.93
2019-02-21T07:06:39.215Z,87.03
2019-02-21T07:09:08.583Z,84.63
2019-02-21T07:11:41.318Z,75.00
2019-02-21T07:14:10.885Z,74.23
2019-02-21T07:16:41.030Z,81.80
2019-02-21T07:19:10.944Z,77.17
2019-02-21T07:21:40.282Z,82.00
2019-02-21T07:24:09.636Z,85.47
2019-02-21T07:26:38.805Z,74.83
2019-02-21T07:29:07.977Z,80.93
2019-02-21T07:31:37.238Z,85.37
2019-02-21T07:34:07.142Z,84.87
2019-02-21T07:36:38.434Z,76.67
2019-02-21T07:39:16.927Z,79.30
2019-02-21T07:41:41.569Z,83.97
2019-02-21T07:44:12.436Z,85.27
2019-02-21T07:46:46.200Z,78.70
2019-02-21T07:49:14.888Z,82.93
2019-02-21T07:51:44.786Z,76.93
2019-02-21T07:54:14.049Z,79.33
2019-02-21T07:56:43.322Z,83.37
2019-02-21T07:59:12.616Z,83.63
2019-02-21T08:01:42.294Z,86.37
2019-02-21T08:04:12.215Z,75.67
2019-02-21T08:06:41.560Z,79.93
2019-02-21T08:09:11.711Z,66.97
2019-02-21T08:11:40.997Z,83.43
2019-02-21T08:14:10.233Z,78.20
2019-02-21T08:16:39.433Z,79.80
2019-02-21T08:19:09.025Z,78.10
2019-02-21T08:21:38.363Z,86.07
2019-02-21T08:24:07.621Z,85.67
2019-02-21T08:26:37.189Z,77.63
2019-02-21T08:29:09.491Z,79.90
2019-02-21T08:31:39.749Z,83.50
2019-02-21T08:34:13.548Z,73.47
2019-02-21T08:36:43.123Z,87.50
2019-02-21T08:39:12.455Z,79.97
2019-02-21T08:41:41.701Z,77.60
2019-02-21T08:44:10.937Z,73.10
2019-02-21T08:46:40.538Z,71.80
2019-02-21T08:49:09.702Z,76.30
2019-02-21T08:51:42.009Z,73.23
2019-02-21T08:54:13.571Z,67.07
2019-02-21T08:56:44.591Z,66.03
2019-02-21T08:59:16.908Z,72.90
2019-02-21T09:01:46.549Z,67.67
2019-02-21T09:04:26.756Z,65.70
2019-02-21T09:06:48.645Z,63.37
2019-02-21T09:09:17.814Z,70.97
2019-02-21T09:11:47.585Z,69.60
2019-02-21T09:14:17.152Z,70.93
2019-02-21T09:16:46.306Z,68.57
2019-02-21T09:19:15.495Z,69.40
2019-02-21T09:21:45.124Z,69.17
2019-02-21T09:24:26.786Z,73.30
2019-02-21T09:26:45.660Z,61.00
2019-02-21T09:29:16.347Z,58.97
2019-02-21T09:31:45.515Z,66.37
2019-02-21T09:34:21.239Z,72.57
2019-02-21T09:36:45.587Z,65.70
2019-02-21T09:39:16.123Z,65.17
2019-02-21T09:41:45.484Z,61.50
2019-02-21T09:44:20.240Z,60.70
2019-02-21T09:46:51.131Z,60.53
2019-02-21T09:49:20.656Z,62.47
2019-02-21T09:51:50.227Z,60.57
2019-02-21T09:54:19.399Z,58.90
2019-02-21T09:56:52.888Z,66.60
2019-02-21T09:59:21.619Z,61.60
2019-02-21T10:01:50.825Z,61.97
2019-02-21T10:04:20.257Z,55.00
2019-02-21T10:06:49.568Z,57.07
2019-02-21T10:09:18.757Z,53.53
2019-02-21T10:11:48.031Z,63.77
2019-02-21T10:14:17.277Z,57.17
2019-02-21T10:16:49.758Z,56.17
2019-02-21T10:19:19.641Z,64.10
2019-02-21T10:21:49.804Z,59.03
2019-02-21T10:24:18.981Z,57.47
2019-02-21T10:26:48.188Z,61.03
2019-02-21T10:29:17.455Z,59.80
2019-02-21T10:31:46.681Z,65.77
2019-02-21T10:34:16.062Z,59.90
2019-02-21T10:36:45.348Z,56.40
2019-02-21T10:39:15.732Z,55.17
2019-02-21T10:41:45.365Z,44.43
2019-02-21T10:44:14.968Z,43.03
2019-02-21T10:46:44.450Z,43.23
2019-02-21T10:49:16.154Z,46.27
2019-02-21T10:51:45.638Z,40.03
2019-02-21T10:54:16.980Z,36.23
2019-02-21T10:56:46.204Z,31.97
2019-02-21T10:59:15.471Z,34.20
2019-02-21T11:01:44.666Z,34.20
2019-02-21T11:04:13.838Z,36.17
2019-02-21T11:06:43.347Z,29.17
2019-02-21T11:09:20.296Z,24.40
2019-02-21T11:11:49.525Z,23.00
2019-02-21T11:14:19.009Z,28.30
2019-02-21T11:16:48.223Z,28.23
2019-02-21T11:19:17.813Z,24.63
2019-02-21T11:21:47.530Z,24.37
2019-02-21T11:24:17.099Z,19.53
2019-02-21T11:26:47.591Z,17.40
2019-02-21T11:29:16.847Z,20.70
2019-02-21T11:31:46.551Z,17.57
2019-02-21T11:34:17.875Z,16.97
2019-02-21T11:36:48.563Z,14.45
2019-02-21T11:39:17.849Z,17.65
2019-02-21T11:41:47.109Z,14.38
2019-02-21T11:44:16.451Z,14.33
2019-02-21T11:46:48.736Z,14.40
2019-02-21T11:49:18.626Z,13.98
2019-02-21T11:51:48.249Z,13.00
2019-02-21T11:54:26.489Z,16.10
2019-02-21T11:56:48.347Z,14.80
2019-02-21T11:59:20.782Z,16.02
2019-02-21T12:01:50.205Z,15.95
2019-02-21T12:04:19.490Z,18.65
2019-02-21T12:06:48.738Z,16.67
2019-02-21T12:09:18.585Z,17.42
2019-02-21T12:11:47.771Z,17.05
2019-02-21T12:14:16.944Z,17.37
2019-02-21T12:16:48.183Z,16.80
2019-02-21T12:19:17.362Z,15.43
2019-02-21T12:21:58.409Z,15.25
2019-02-21T12:24:19.886Z,15.65
2019-02-21T12:26:49.266Z,11.75
2019-02-21T12:29:18.517Z,13.83
2019-02-21T12:31:48.194Z,16.77
2019-02-21T12:34:17.372Z,14.50
2019-02-21T12:36:46.648Z,13.85
2019-02-21T12:39:15.898Z,13.48
2019-02-21T12:41:45.185Z,13.18
2019-02-21T12:44:14.774Z,16.25
2019-02-21T12:46:45.706Z,15.88
2019-02-21T12:49:15.421Z,13.08
2019-02-21T12:51:44.657Z,15.23
2019-02-21T12:54:13.910Z,11.75
2019-02-21T12:56:43.253Z,13.40
2019-02-21T12:59:12.846Z,10.93
2019-02-21T13:01:42.024Z,13.95
2019-02-21T13:04:11.300Z,12.53
2019-02-21T13:06:40.899Z,13.62
2019-02-21T13:09:10.219Z,15.03
2019-02-21T13:11:42.524Z,11.38
2019-02-21T13:14:11.796Z,13.43
2019-02-21T13:16:40.985Z,13.78
2019-02-21T13:19:10.166Z,10.75
2019-02-21T13:21:39.321Z,12.93
2019-02-21T13:24:08.511Z,12.05
2019-02-21T13:26:37.839Z,14.95
2019-02-21T13:29:07.017Z,15.43
2019-02-21T13:31:36.280Z,11.78
2019-02-21T13:34:07.232Z,10.15
2019-02-21T13:36:36.419Z,21.27
2019-02-21T13:39:07.822Z,13.05
2019-02-21T13:41:37.351Z,11.40
2019-02-21T13:44:07.535Z,12.68
2019-02-21T13:46:40.039Z,10.23
2019-02-21T13:49:07.864Z,12.40
2019-02-21T13:51:37.175Z,10.63
2019-02-21T13:54:06.449Z,9.30
2019-02-21T13:56:35.690Z,10.03
2019-02-21T13:59:04.939Z,12.18
2019-02-21T14:01:34.221Z,11.40
2019-02-21T14:04:04.557Z,14.80
2019-02-21T14:06:33.882Z,13.90
2019-02-21T14:09:04.668Z,11.05
2019-02-21T14:11:35.099Z,13.55
2019-02-21T14:14:04.309Z,14.95
2019-02-21T14:16:33.645Z,11.63
2019-02-21T14:19:02.902Z,14.43
2019-02-21T14:21:32.118Z,11.97
2019-02-21T14:24:03.441Z,11.48
2019-02-21T14:26:32.940Z,11.15
2019-02-21T14:29:02.508Z,10.35
2019-02-21T14:31:35.923Z,10.65
2019-02-21T14:34:05.235Z,16.37
2019-02-21T14:36:34.472Z,17.50
2019-02-21T14:39:05.784Z,10.13
2019-02-21T14:41:39.084Z,11.05
2019-02-21T14:44:08.241Z,11.25
2019-02-21T14:46:37.576Z,10.25
2019-02-21T14:49:06.850Z,12.90
2019-02-21T14:51:36.160Z,17.90
2019-02-21T14:54:06.492Z,13.27
2019-02-21T14:56:35.738Z,12.70
2019-02-21T14:59:04.905Z,10.67
2019-02-21T15:01:34.073Z,15.23
2019-02-21T15:04:03.691Z,13.30
2019-02-21T15:06:33.867Z,13.80
2019-02-21T15:09:04.203Z,12.47
2019-02-21T15:11:33.453Z,15.40
2019-02-21T15:14:03.170Z,11.43
2019-02-21T15:16:32.869Z,18.40
2019-02-21T15:19:02.124Z,13.30
2019-02-21T15:21:33.292Z,12.70
2019-02-21T15:24:02.535Z,9.03
2019-02-21T15:26:32.153Z,13.50
2019-02-21T15:29:01.370Z,12.43
2019-02-21T15:31:30.594Z,11.37
2019-02-21T15:33:59.881Z,12.50
2019-02-21T15:36:37.911Z,16.07
2019-02-21T15:39:00.429Z,13.27
2019-02-21T15:41:29.597Z,12.80
2019-02-21T15:43:58.767Z,11.83
2019-02-21T15:46:28.329Z,15.80
2019-02-21T15:48:57.693Z,14.20
2019-02-21T15:51:32.289Z,15.07
2019-02-21T15:54:02.576Z,13.33
2019-02-21T15:56:31.835Z,15.43
2019-02-21T15:59:01.394Z,16.20
2019-02-21T16:01:30.574Z,14.90
2019-02-21T16:03:59.807Z,15.10
2019-02-21T16:06:29.387Z,12.80
2019-02-21T16:08:58.777Z,15.20
2019-02-21T16:11:30.128Z,14.07
2019-02-21T16:14:03.145Z,17.73
2019-02-21T16:16:30.372Z,19.10
2019-02-21T16:19:02.656Z,19.50
2019-02-21T16:21:31.899Z,17.10
2019-02-21T16:24:01.061Z,22.60
2019-02-21T16:26:30.237Z,23.87
2019-02-21T16:29:00.807Z,16.90
2019-02-21T16:31:30.093Z,15.57
2019-02-21T16:33:59.326Z,14.07
2019-02-21T16:36:28.831Z,16.93
2019-02-21T16:38:58.960Z,20.53
2019-02-21T16:41:36.014Z,20.27
2019-02-21T16:43:59.123Z,17.13
2019-02-21T16:46:47.445Z,13.93
2019-02-21T16:49:19.299Z,18.67
2019-02-21T16:51:49.217Z,15.13
2019-02-21T16:54:18.425Z,14.90
2019-02-21T16:56:47.637Z,15.73
2019-02-21T16:59:17.197Z,16.10
2019-02-21T17:01:46.815Z,17.30
2019-02-21T17:04:16.023Z,17.13
2019-02-21T17:06:48.123Z,15.97
2019-02-21T17:09:17.352Z,16.83
2019-02-21T17:11:46.569Z,20.30
2019-02-21T17:14:15.814Z,22.17
2019-02-21T17:16:44.981Z,20.00
2019-02-21T17:19:14.233Z,28.13
2019-02-21T17:21:43.777Z,20.87
2019-02-21T17:24:13.416Z,21.90
2019-02-21T17:26:43.265Z,21.43
2019-02-21T17:29:12.451Z,22.60
2019-02-21T17:31:41.645Z,30.80
2019-02-21T17:34:10.837Z,22.70
2019-02-21T17:36:40.487Z,28.67
2019-02-21T17:39:09.761Z,25.40
2019-02-21T17:41:38.994Z,23.60
2019-02-21T17:44:08.672Z,25.73
2019-02-21T17:46:37.840Z,34.13
2019-02-21T17:49:07.880Z,26.83
2019-02-21T17:51:37.146Z,26.93
2019-02-21T17:54:06.445Z,23.83
2019-02-21T17:56:35.742Z,27.07
2019-02-21T17:59:05.151Z,25.53
2019-02-21T18:01:34.796Z,24.63
2019-02-21T18:04:06.659Z,26.83
2019-02-21T18:06:36.740Z,24.57
2019-02-21T18:09:07.434Z,24.90
2019-02-21T18:11:43.140Z,26.80
2019-02-21T18:14:12.975Z,23.50
2019-02-21T18:16:42.306Z,26.83
2019-02-21T18:19:11.491Z,32.90
2019-02-21T18:21:40.733Z,28.90
2019-02-21T18:24:09.947Z,31.00
2019-02-21T18:26:39.145Z,29.47
2019-02-21T18:29:09.633Z,24.50
2019-02-21T18:31:42.185Z,28.83
2019-02-21T18:34:13.931Z,30.97
2019-02-21T18:36:43.528Z,28.67
2019-02-21T18:39:13.358Z,25.03
2019-02-21T18:41:42.679Z,30.43
2019-02-21T18:44:12.341Z,34.27
2019-02-21T18:46:41.903Z,33.73
2019-02-21T18:49:13.455Z,29.93
2019-02-21T18:51:43.235Z,31.20
2019-02-21T18:54:12.655Z,31.13
2019-02-21T18:56:41.963Z,29.17
2019-02-21T18:59:11.217Z,29.67
2019-02-21T19:01:40.819Z,30.57
2019-02-21T19:04:11.347Z,31.13
2019-02-21T19:06:40.875Z,31.53
2019-02-21T19:09:10.866Z,30.43
2019-02-21T19:11:40.164Z,29.90
2019-02-21T19:14:09.581Z,29.97
2019-02-21T19:16:38.759Z,31.07
2019-02-21T19:19:09.432Z,32.73
2019-02-21T19:21:40.629Z,33.17
2019-02-21T19:24:10.216Z,33.83
2019-02-21T19:26:40.254Z,31.77
2019-02-21T19:29:09.575Z,36.27
2019-02-21T19:31:38.850Z,38.17
2019-02-21T19:34:08.177Z,41.83
2019-02-21T19:36:37.656Z,38.80
2019-02-21T19:39:10.062Z,44.80
2019-02-21T19:41:39.256Z,40.53
2019-02-21T19:44:09.650Z,40.57
2019-02-21T19:46:39.875Z,34.80
2019-02-21T19:49:09.788Z,38.83
2019-02-21T19:51:39.091Z,39.10
2019-02-21T19:54:08.291Z,44.70
2019-02-21T19:56:39.948Z,44.07
2019-02-21T19:59:09.300Z,42.13
2019-02-21T20:01:40.216Z,47.83
2019-02-21T20:04:09.515Z,44.70
2019-02-21T20:06:38.882Z,35.57
2019-02-21T20:09:08.919Z,40.00
2019-02-21T20:11:38.787Z,48.47
2019-02-21T20:14:08.082Z,44.53
2019-02-21T20:16:37.769Z,38.77
2019-02-21T20:19:07.159Z,39.53
2019-02-21T20:21:36.817Z,45.50
2019-02-21T20:24:06.093Z,48.40
2019-02-21T20:26:35.277Z,42.03
2019-02-21T20:29:05.324Z,36.47
2019-02-21T20:31:34.573Z,42.13
2019-02-21T20:34:04.065Z,41.63
2019-02-21T20:36:33.239Z,42.07
2019-02-21T20:39:02.549Z,40.77
2019-02-21T20:41:31.880Z,42.83
2019-02-21T20:44:02.745Z,42.90
2019-02-21T20:46:32.011Z,43.40
2019-02-21T20:49:01.176Z,43.53
2019-02-21T20:51:32.804Z,44.53
2019-02-21T20:54:02.257Z,48.07
2019-02-21T20:56:31.523Z,48.03
2019-02-21T20:59:00.719Z,43.50
2019-02-21T21:01:29.893Z,46.10
2019-02-21T21:03:59.745Z,47.40
2019-02-21T21:06:33.904Z,46.97
2019-02-21T21:09:04.374Z,44.53
2019-02-21T21:11:33.750Z,50.83
2019-02-21T21:14:03.252Z,45.70
2019-02-21T21:16:32.464Z,53.27
2019-02-21T21:19:04.598Z,48.33
2019-02-21T21:21:35.246Z,49.90
2019-02-21T21:24:04.523Z,53.77
2019-02-21T21:26:33.768Z,52.17
2019-02-21T21:29:02.964Z,55.37
2019-02-21T21:31:32.732Z,63.90
2019-02-21T21:34:01.986Z,51.00
2019-02-21T21:36:31.316Z,49.27
2019-02-21T21:39:00.574Z,49.57
2019-02-21T21:41:30.052Z,48.63
2019-02-21T21:43:59.220Z,56.30
2019-02-21T21:46:30.029Z,51.27
2019-02-21T21:49:02.687Z,56.03
2019-02-21T21:51:33.961Z,52.73
2019-02-21T21:54:02.842Z,51.10
2019-02-21T21:56:32.010Z,49.27
2019-02-21T21:59:04.361Z,52.30
2019-02-21T22:01:36.629Z,45.13
2019-02-21T22:04:05.806Z,51.90
2019-02-21T22:06:35.132Z,46.93
2019-02-21T22:09:05.237Z,44.60
2019-02-21T22:11:34.534Z,50.47
2019-02-21T22:14:04.357Z,48.43
2019-02-21T22:16:33.609Z,51.87
2019-02-21T22:19:02.934Z,45.60
2019-02-21T22:21:32.102Z,49.03
2019-02-21T22:24:01.645Z,43.33
2019-02-21T22:26:31.093Z,47.67
2019-02-21T22:29:00.645Z,44.67
2019-02-21T22:31:30.465Z,44.53
2019-02-21T22:33:59.954Z,47.23
2019-02-21T22:36:29.154Z,54.03
2019-02-21T22:38:58.495Z,48.53
2019-02-21T22:41:28.249Z,50.60
2019-02-21T22:43:57.816Z,53.10
2019-02-21T22:46:27.019Z,52.33
2019-02-21T22:48:56.480Z,52.37
2019-02-21T22:51:28.703Z,52.77
2019-02-21T22:53:57.884Z,54.40
2019-02-21T22:56:27.144Z,58.77
2019-02-21T22:58:56.640Z,56.80
2019-02-21T23:01:29.536Z,62.63
2019-02-21T23:04:43.022Z,57.60
2019-02-21T23:07:38.222Z,60.13
2019-02-21T23:10:07.777Z,58.00
2019-02-21T23:12:37.104Z,65.50
2019-02-21T23:15:07.542Z,67.07
2019-02-21T23:17:36.849Z,64.13
2019-02-21T23:20:08.597Z,67.93
2019-02-21T23:22:38.203Z,70.47
2019-02-21T23:25:09.084Z,65.37
2019-02-21T23:27:38.320Z,73.23
2019-02-21T23:30:10.884Z,75.00
2019-02-21T23:32:40.096Z,83.60
2019-02-21T23:35:11.410Z,74.00
2019-02-21T23:37:44.327Z,77.07
2019-02-21T23:40:14.962Z,82.20
2019-02-21T23:42:44.215Z,88.03
2019-02-21T23:45:13.878Z,73.07
2019-02-21T23:47:49.706Z,88.20
2019-02-21T23:50:14.038Z,85.87
2019-02-21T23:52:43.405Z,77.20
2019-02-21T23:55:13.144Z,80.77
2019-02-21T23:57:42.411Z,91.73
